Time;durP1;ratioP1;P1;durP2;ratioP2;P2;SDS_P1;SDS_P2;PMS_P1;PMS_P2;Temp;Humidity;BMP_temperature;BMP_pressure;BME280_temperature;BME280_humidity;BME280_pressure;Samples;Min_cycle;Max_cycle;Signal;HPM_P1;HPM_P2
2023/11/03 00:02:20;;;;;;;;;;;;;;;;;;4977876;28;2610;-60
2023/11/03 00:04:50;;;;;;;;;;;;;;;;;;4990876;28;5294;-59
2023/11/03 00:07:17;;;;;;;;;;;;;;;;;;4986201;28;5015;-59
2023/11/03 00:10:05;;;;;;;;;;;;;;;;;;4984516;28;5176;-59
2023/11/03 00:12:30;;;;;;;;;;;;;;;;;;5033351;28;5201;-59
2023/11/03 00:14:57;;;;;;;;;;;;;;;;;;5016866;28;4451;-59
2023/11/03 00:17:22;;;;;;;;;;;;;;;;;;5004674;28;2620;-58
2023/11/03 00:19:48;;;;;;;;;;;;;;;;;;4998546;28;4876;-62
2023/11/03 00:22:13;;;;;;;;;;;;;;;;;;4992333;28;5079;-59
2023/11/03 00:24:39;;;;;;;;;;;;;;;;;;4997192;28;4925;-59
2023/11/03 00:27:25;;;;;;;;;;;;;;;;;;5014566;28;4749;-59
2023/11/03 00:29:50;;;;;;;;;;;;;;;;;;5004344;28;5141;-59
2023/11/03 00:32:16;;;;;;;;;;;;;;;;;;4984301;28;5080;-59
2023/11/03 00:35:00;;;;;;;;;;;;;;;;;;4971565;28;5107;-59
2023/11/03 00:37:30;;;;;;;;;;;;;;;;;;4989135;28;5035;-59
2023/11/03 00:39:55;;;;;;;;;;;;;;;;;;4972253;28;5167;-59
2023/11/03 00:42:33;;;;;;;;;;;;;;;;;;4981587;28;4732;-59
2023/11/03 00:45:14;;;;;;;;;;;;;;;;;;4995276;28;5156;-59
2023/11/03 00:47:41;;;;;;;;;;;;;;;;;;4980671;28;2571;-59
2023/11/03 00:50:09;;;;;;;;;;;;;;;;;;4971662;28;5028;-64
2023/11/03 00:52:34;;;;;;;;;;;;;;;;;;4982274;28;5027;-59
2023/11/03 00:55:00;;;;;;;;;;;;;;;;;;4976775;28;4911;-59
2023/11/03 00:57:25;;;;;;;;;;;;;;;;;;4982601;28;5134;-59
2023/11/03 00:59:50;;;;;;;;;;;;;;;;;;4981107;28;1019;-62
2023/11/03 01:02:17;;;;;;;;;;;;;;;;;;4972572;28;4600;-60
2023/11/03 01:04:42;;;;;;;;;;;;;;;;;;5007579;28;5152;-59
2023/11/03 01:07:08;;;;;;;;;;;;;;;;;;4981918;28;5075;-58
2023/11/03 01:09:33;;;;;;;;;;;;;;;;;;4996099;28;4458;-59
2023/11/03 01:11:58;;;;;;;;;;;;;;;;;;4978864;28;4497;-62
2023/11/03 01:14:23;;;;;;;;;;;;;;;;;;4976019;28;3375;-60
2023/11/03 01:16:57;;;;;;;;;;;;;;;;;;4983295;28;4680;-59
2023/11/03 01:19:22;;;;;;;;;;;;;;;;;;4981443;28;4940;-59
2023/11/03 01:21:48;;;;;;;;;;;;;;;;;;4979789;28;5115;-59
2023/11/03 01:24:13;;;;;;;;;;;;;;;;;;4974890;28;5046;-58
2023/11/03 01:26:38;;;;;;;;;;;;;;;;;;4973032;28;2644;-58
2023/11/03 01:38:11;;;;;;;;;;;;;;;;;;4977159;28;4947;-58
2023/11/03 01:40:36;;;;;;;;;;;;;;;;;;4975886;28;5010;-58
2023/11/03 01:43:01;;;;;;;;;;;;;;;;;;4980126;28;5026;-58
2023/11/03 01:45:27;;;;;;;;;;;;;;;;;;4973753;28;5024;-58
2023/11/03 01:47:53;;;;;;;;;;;;;;;;;;4982304;28;1910;-59
2023/11/03 01:50:18;;;;;;;;;;;;;;;;;;5006138;28;5078;-58
2023/11/03 01:52:43;;;;;;;;;;;;;;;;;;5005961;28;5176;-59
2023/11/03 01:55:09;;;;;;;;;;;;;;;;;;5005684;28;4618;-58
2023/11/03 01:57:34;;;;;;;;;;;;;;;;;;4994195;28;5114;-58
2023/11/03 02:00:00;;;;;;;;;;;;;;;;;;4991455;28;4607;-59
2023/11/03 02:02:28;;;;;;;;;;;;;;;;;;5017206;28;3117;-63
2023/11/03 02:04:54;;;;;;;;;;;;;;;;;;4990137;28;5962;-59
2023/11/03 02:07:19;;;;;;;;;;;;;;;;;;4999951;28;5079;-59
2023/11/03 02:09:44;;;;;;;;;;;;;;;;;;4988554;28;5231;-60
2023/11/03 02:12:11;;;;;;;;;;;;;;;;;;5002369;28;4521;-58
2023/11/03 02:14:36;;;;;;;;;;;;;;;;;;4997722;28;2745;-59
2023/11/03 02:17:03;;;;;;;;;;;;;;;;;;5005466;28;5085;-63
2023/11/03 02:19:29;;;;;;;;;;;;;;;;;;5002474;28;5354;-59
2023/11/03 02:21:54;;;;;;;;;;;;;;;;;;5020644;28;4650;-58
2023/11/03 02:24:20;;;;;;;;;;;;;;;;;;5012734;28;4678;-58
2023/11/03 02:26:45;;;;;;;;;;;;;;;;;;5011513;28;2654;-60
2023/11/03 02:29:11;;;;;;;;;;;;;;;;;;5007415;28;5008;-59
2023/11/03 02:31:36;;;;;;;;;;;;;;;;;;4979644;28;5181;-59
2023/11/03 02:40:19;;;;;;;;;;;;;;;;;;4992855;28;5065;-58
2023/11/03 02:42:45;;;;;;;;;;;;;;;;;;4983343;28;5054;-58
2023/11/03 02:45:10;;;;;;;;;;;;;;;;;;4974713;28;4666;-59
2023/11/03 02:47:35;;;;;;;;;;;;;;;;;;4973296;28;1914;-58
2023/11/03 02:50:01;;;;;;;;;;;;;;;;;;4986672;28;5189;-61
2023/11/03 02:52:26;;;;;;;;;;;;;;;;;;4987135;28;4838;-60
2023/11/03 02:54:51;;;;;;;;;;;;;;;;;;4969630;28;5035;-58
2023/11/03 02:57:16;;;;;;;;;;;;;;;;;;4967930;28;5082;-58
2023/11/03 02:59:43;;;;;;;;;;;;;;;;;;4969079;28;2560;-59
2023/11/03 03:02:09;;;;;;;;;;;;;;;;;;4970078;28;5066;-58
2023/11/03 03:04:34;;;;;;;;;;;;;;;;;;4987917;28;5024;-59
2023/11/03 03:07:17;;;;;;;;;;;;;;;;;;4992650;28;4977;-58
2023/11/03 03:09:42;;;;;;;;;;;;;;;;;;4975436;28;5109;-60
2023/11/03 03:12:08;;;;;;;;;;;;;;;;;;4993339;28;4876;-57
2023/11/03 03:17:36;;;;;;;;;;;;;;;;;;4998487;28;4594;-59
2023/11/03 03:20:02;;;;;;;;;;;;;;;;;;5007825;28;5147;-59
2023/11/03 03:22:27;;;;;;;;;;;;;;;;;;5002804;28;5033;-59
2023/11/03 03:24:53;;;;;;;;;;;;;;;;;;5014743;28;4638;-61
2023/11/03 03:27:19;;;;;;;;;;;;;;;;;;5003702;28;4546;-60
2023/11/03 03:29:44;;;;;;;;;;;;;;;;;;5006050;28;1286;-59
2023/11/03 03:32:09;;;;;;;;;;;;;;;;;;5006288;28;4906;-59
2023/11/03 03:34:34;;;;;;;;;;;;;;;;;;4996875;28;5058;-59
2023/11/03 03:37:00;;;;;;;;;;;;;;;;;;5008572;28;4532;-59
2023/11/03 03:39:25;;;;;;;;;;;;;;;;;;4989691;28;5127;-59
2023/11/03 03:41:57;;;;;;;;;;;;;;;;;;5005345;28;3000;-60
2023/11/03 03:44:22;;;;;;;;;;;;;;;;;;4991350;28;5144;-59
2023/11/03 03:46:48;;;;;;;;;;;;;;;;;;4989078;28;4689;-59
2023/11/03 03:49:14;;;;;;;;;;;;;;;;;;4999988;28;5056;-59
2023/11/03 03:52:01;;;;;;;;;;;;;;;;;;4996809;28;5214;-59
2023/11/03 03:54:26;;;;;;;;;;;;;;;;;;4995218;28;5024;-59
2023/11/03 03:56:51;;;;;;;;;;;;;;;;;;4996064;28;3908;-59
2023/11/03 03:59:25;;;;;;;;;;;;;;;;;;5013408;28;4469;-59
2023/11/03 04:01:50;;;;;;;;;;;;;;;;;;5006271;28;4842;-59
2023/11/03 04:04:15;;;;;;;;;;;;;;;;;;5014243;28;4706;-59
2023/11/03 04:06:43;;;;;;;;;;;;;;;;;;5006683;28;5092;-59
2023/11/03 04:09:09;;;;;;;;;;;;;;;;;;4999280;28;4940;-59
2023/11/03 04:11:35;;;;;;;;;;;;;;;;;;4999029;28;3009;-60
2023/11/03 04:17:03;;;;;;;;;;;;;;;;;;5013256;28;4567;-60
2023/11/03 04:19:29;;;;;;;;;;;;;;;;;;4996116;28;5112;-60
2023/11/03 04:21:54;;;;;;;;;;;;;;;;;;4992908;28;5144;-60
2023/11/03 04:24:21;;;;;;;;;;;;;;;;;;4998797;28;5026;-59
2023/11/03 04:26:55;;;;;;;;;;;;;;;;;;4983182;28;2564;-59
2023/11/03 04:29:21;;;;;;;;;;;;;;;;;;4994850;28;5112;-59
2023/11/03 04:31:46;;;;;;;;;;;;;;;;;;4993503;28;4616;-62
2023/11/03 04:34:11;;;;;;;;;;;;;;;;;;4993914;28;5044;-59
2023/11/03 04:36:37;;;;;;;;;;;;;;;;;;5009657;28;5139;-59
2023/11/03 04:39:02;;;;;;;;;;;;;;;;;;5005288;28;5099;-59
2023/11/03 04:41:28;;;;;;;;;;;;;;;;;;4992893;28;2635;-59
2023/11/03 04:43:53;;;;;;;;;;;;;;;;;;4993039;28;5000;-59
2023/11/03 04:46:34;;;;;;;;;;;;;;;;;;4994499;28;5035;-59
2023/11/03 04:49:26;;;;;;;;;;;;;;;;;;4979453;28;5057;-59
2023/11/03 04:51:52;;;;;;;;;;;;;;;;;;4987178;28;5045;-60
2023/11/03 04:54:17;;;;;;;;;;;;;;;;;;4994852;28;5333;-59
2023/11/03 04:56:44;;;;;;;;;;;;;;;;;;4990486;28;1211;-59
2023/11/03 05:05:14;;;;;;;;;;;;;;;;;;4977278;28;5307;-57
2023/11/03 05:07:40;;;;;;;;;;;;;;;;;;4976885;28;4935;-58
2023/11/03 05:10:06;;;;;;;;;;;;;;;;;;4977313;28;5097;-58
2023/11/03 05:12:31;;;;;;;;;;;;;;;;;;4976610;28;5249;-58
2023/11/03 05:14:56;;;;;;;;;;;;;;;;;;4976871;28;4715;-58
2023/11/03 05:17:22;;;;;;;;;;;;;;;;;;4976843;28;1118;-58
2023/11/03 05:19:48;;;;;;;;;;;;;;;;;;4976538;28;4481;-58
2023/11/03 05:22:13;;;;;;;;;;;;;;;;;;4976425;28;4837;-58
2023/11/03 05:27:41;;;;;;;;;;;;;;;;;;4976147;28;4487;-58
2023/11/03 05:33:10;;;;;;;;;;;;;;;;;;4976103;28;5140;-58
2023/11/03 05:38:38;;;;;;;;;;;;;;;;;;4976388;28;4562;-58
2023/11/03 05:44:06;;;;;;;;;;;;;;;;;;4976794;28;4465;-58
2023/11/03 05:49:47;;;;;;;;;;;;;;;;;;4976638;28;4590;-59
2023/11/03 05:55:35;;;;;;;;;;;;;;;;;;4995443;28;4683;-58
2023/11/03 05:58:00;;;;;;;;;;;;;;;;;;4995112;28;4961;-58
2023/11/03 06:00:28;;;;;;;;;;;;;;;;;;5008751;28;4569;-59
2023/11/03 06:02:55;;;;;;;;;;;;;;;;;;5014581;28;4456;-59
2023/11/03 06:11:25;;;;;;;;;;;;;;;;;;5015828;28;4604;-59
2023/11/03 06:13:51;;;;;;;;;;;;;;;;;;5014517;28;5056;-59
2023/11/03 06:16:20;;;;;;;;;;;;;;;;;;5012516;28;4976;-58
2023/11/03 06:18:46;;;;;;;;;;;;;;;;;;4996813;28;4886;-58
2023/11/03 06:24:14;;;;;;;;;;;;;;;;;;5014654;28;4603;-58
2023/11/03 06:26:39;;;;;;;;;;;;;;;;;;5013435;28;2407;-59
2023/11/03 06:29:05;;;;;;;;;;;;;;;;;;5004232;28;4474;-59
2023/11/03 06:34:33;;;;;;;;;;;;;;;;;;4995466;28;4483;-58
2023/11/03 06:37:13;;;;;;;;;;;;;;;;;;4994972;28;5077;-63
2023/11/03 06:39:38;;;;;;;;;;;;;;;;;;5001038;28;5017;-59
2023/11/03 06:42:19;;;;;;;;;;;;;;;;;;5033880;28;5045;-60
2023/11/03 06:44:44;;;;;;;;;;;;;;;;;;4995314;28;1489;-59
2023/11/03 06:47:10;;;;;;;;;;;;;;;;;;4993682;28;4488;-59
2023/11/03 06:49:47;;;;;;;;;;;;;;;;;;4977136;28;5054;-59
2023/11/03 06:52:13;;;;;;;;;;;;;;;;;;4992583;28;5037;-59
2023/11/03 06:54:38;;;;;;;;;;;;;;;;;;4993822;28;5194;-59
2023/11/03 06:57:18;;;;;;;;;;;;;;;;;;5012322;28;4614;-59
2023/11/03 06:59:43;;;;;;;;;;;;;;;;;;5012067;28;2543;-59
2023/11/03 07:02:09;;;;;;;;;;;;;;;;;;5014016;28;5805;-58
2023/11/03 07:10:31;;;;;;;;;;;;;;;;;;4991953;28;5059;-58
2023/11/03 07:13:05;;;;;;;;;;;;;;;;;;4993872;28;4549;-59
2023/11/03 07:15:32;;;;;;;;;;;;;;;;;;4989744;28;5723;-58
2023/11/03 07:18:00;;;;;;;;;;;;;;;;;;4991675;28;4597;-59
2023/11/03 07:20:29;;;;;;;;;;;;;;;;;;4992505;28;2738;-59
2023/11/03 07:29:18;;;;;;;;;;;;;;;;;;4997941;28;5069;-59
2023/11/03 07:41:27;;;;;;;;;;;;;;;;;;4990741;28;4971;-59
2023/11/03 07:43:53;;;;;;;;;;;;;;;;;;4993656;28;4993;-59
2023/11/03 07:46:19;;;;;;;;;;;;;;;;;;4994565;28;4537;-59
2023/11/03 07:48:45;;;;;;;;;;;;;;;;;;4990944;28;5183;-59
2023/11/03 07:51:23;;;;;;;;;;;;;;;;;;4987791;28;4725;-58
2023/11/03 07:53:48;;;;;;;;;;;;;;;;;;4993568;28;3136;-63
2023/11/03 07:56:13;;;;;;;;;;;;;;;;;;4985800;28;4998;-63
2023/11/03 07:58:50;;;;;;;;;;;;;;;;;;4989897;28;4476;-64
2023/11/03 08:16:48;;;;;;;;;;;;;;;;;;4996444;28;4490;-60
2023/11/03 08:19:13;;;;;;;;;;;;;;;;;;5011536;28;5038;-60
2023/11/03 08:21:42;;;;;;;;;;;;;;;;;;4996843;28;5054;-59
2023/11/03 08:24:11;;;;;;;;;;;;;;;;;;4996090;28;5151;-60
2023/11/03 08:26:37;;;;;;;;;;;;;;;;;;4978951;28;1971;-60
2023/11/03 08:29:03;;;;;;;;;;;;;;;;;;4992194;28;4800;-60
2023/11/03 08:31:29;;;;;;;;;;;;;;;;;;4992352;28;5032;-60
2023/11/03 08:33:54;;;;;;;;;;;;;;;;;;5009591;28;5127;-60
2023/11/03 08:36:19;;;;;;;;;;;;;;;;;;5008632;28;4570;-60
2023/11/03 08:38:45;;;;;;;;;;;;;;;;;;4990136;28;1287;-60
2023/11/03 08:41:10;;;;;;;;;;;;;;;;;;5015439;28;4840;-61
2023/11/03 08:46:40;;;;;;;;;;;;;;;;;;5001993;28;4494;-61
2023/11/03 08:49:38;;;;;;;;;;;;;;;;;;5021199;28;4908;-61
2023/11/03 08:52:03;;;;;;;;;;;;;;;;;;5007889;28;4975;-60
2023/11/03 08:54:29;;;;;;;;;;;;;;;;;;5006669;28;4947;-60
2023/11/03 08:56:54;;;;;;;;;;;;;;;;;;4997999;28;4466;-60
2023/11/03 08:59:20;;;;;;;;;;;;;;;;;;4992906;28;1347;-61
2023/11/03 09:01:45;;;;;;;;;;;;;;;;;;4999341;28;4639;-60
2023/11/03 09:04:11;;;;;;;;;;;;;;;;;;4997637;28;5230;-60
2023/11/03 09:09:51;;;;;;;;;;;;;;;;;;5014981;28;5094;-60
2023/11/03 09:18:46;;;;;;;;;;;;;;;;;;5000528;28;5144;-61
2023/11/03 09:24:30;;;;;;;;;;;;;;;;;;4992559;28;5076;-61
2023/11/03 09:26:56;;;;;;;;;;;;;;;;;;5008152;28;5044;-61
2023/11/03 09:29:21;;;;;;;;;;;;;;;;;;4991620;28;4831;-61
2023/11/03 09:31:48;;;;;;;;;;;;;;;;;;4992001;28;4672;-61
2023/11/03 09:34:13;;;;;;;;;;;;;;;;;;5007304;28;5057;-60
2023/11/03 09:36:39;;;;;;;;;;;;;;;;;;5014996;28;4575;-60
2023/11/03 09:39:04;;;;;;;;;;;;;;;;;;4994698;28;4687;-63
2023/11/03 09:41:31;;;;;;;;;;;;;;;;;;5001892;28;1668;-64
2023/11/03 09:47:15;;;;;;;;;;;;;;;;;;5003157;28;5064;-62
2023/11/03 09:49:43;;;;;;;;;;;;;;;;;;5014092;28;5015;-62
2023/11/03 09:52:09;;;;;;;;;;;;;;;;;;5012345;28;5082;-62
2023/11/03 09:54:35;;;;;;;;;;;;;;;;;;5029981;28;5012;-62
2023/11/03 10:03:33;;;;;;;;;;;;;;;;;;5005746;28;4916;-62
2023/11/03 10:06:02;;;;;;;;;;;;;;;;;;5024918;28;5235;-62
2023/11/03 10:08:28;;;;;;;;;;;;;;;;;;4996544;28;2371;-62
2023/11/03 10:10:53;;;;;;;;;;;;;;;;;;5005629;28;5136;-62
2023/11/03 10:13:34;;;;;;;;;;;;;;;;;;4999780;28;5231;-62
2023/11/03 10:16:01;;;;;;;;;;;;;;;;;;4996659;28;4532;-62
2023/11/03 10:18:26;;;;;;;;;;;;;;;;;;4986984;28;5057;-62
2023/11/03 10:20:56;;;;;;;;;;;;;;;;;;5002465;28;1134;-62
2023/11/03 10:23:22;;;;;;;;;;;;;;;;;;5002030;28;5972;-62
2023/11/03 10:25:47;;;;;;;;;;;;;;;;;;5004779;28;5049;-62
2023/11/03 10:28:13;;;;;;;;;;;;;;;;;;4987046;28;5071;-62
2023/11/03 10:30:39;;;;;;;;;;;;;;;;;;4996500;28;4845;-62
2023/11/03 10:33:05;;;;;;;;;;;;;;;;;;4989347;28;4922;-61
2023/11/03 10:35:30;;;;;;;;;;;;;;;;;;4988119;28;1196;-61
2023/11/03 10:40:58;;;;;;;;;;;;;;;;;;4996100;28;5037;-62
2023/11/03 10:43:25;;;;;;;;;;;;;;;;;;5001801;28;5097;-61
2023/11/03 10:45:53;;;;;;;;;;;;;;;;;;4987465;28;4688;-62
2023/11/03 10:48:25;;;;;;;;;;;;;;;;;;4996345;28;5248;-61
2023/11/03 10:50:59;;;;;;;;;;;;;;;;;;5003305;28;1163;-62
2023/11/03 10:53:37;;;;;;;;;;;;;;;;;;4995453;28;5069;-62
2023/11/03 10:56:07;;;;;;;;;;;;;;;;;;5000925;28;4459;-69
2023/11/03 10:58:32;;;;;;;;;;;;;;;;;;4994425;28;5012;-64
2023/11/03 11:01:06;;;;;;;;;;;;;;;;;;4991487;28;5305;-62
2023/11/03 11:04:12;;;;;;;;;;;;;;;;;;4990160;28;5075;-64
2023/11/03 11:06:39;;;;;;;;;;;;;;;;;;4944705;28;4749;-68
2023/11/03 11:09:06;;;;;;;;;;;;;;;;;;4945790;28;5066;-64
2023/11/03 11:11:40;;;;;;;;;;;;;;;;;;4952042;28;1798;-63
2023/11/03 11:14:17;;;;;;;;;;;;;;;;;;4966040;28;5508;-63
2023/11/03 11:19:48;;;;;;;;;;;;;;;;;;4947589;28;5139;-68
2023/11/03 11:25:20;;;;;;;;;;;;;;;;;;4982356;28;4882;-66
2023/11/03 11:34:15;;;;;;;;;;;;;;;;;;4992655;28;4509;-64
2023/11/03 11:39:58;;;;;;;;;;;;;;;;;;4996530;28;5225;-64
2023/11/03 11:42:35;;;;;;;;;;;;;;;;;;5009962;28;4989;-67
2023/11/03 11:45:01;;;;;;;;;;;;;;;;;;4992789;28;5042;-67
2023/11/03 11:47:30;;;;;;;;;;;;;;;;;;4993148;28;1918;-62
2023/11/03 11:49:55;;;;;;;;;;;;;;;;;;4997563;28;4858;-61
2023/11/03 11:52:25;;;;;;;;;;;;;;;;;;5016388;28;5124;-62
2023/11/03 11:54:51;;;;;;;;;;;;;;;;;;5014817;28;5133;-63
2023/11/03 11:57:17;;;;;;;;;;;;;;;;;;4997815;28;4596;-70
2023/11/03 11:59:43;;;;;;;;;;;;;;;;;;4993766;28;1520;-65
2023/11/03 12:02:08;;;;;;;;;;;;;;;;;;5003447;28;5128;-64
2023/11/03 12:04:36;;;;;;;;;;;;;;;;;;5000537;28;4904;-64
2023/11/03 12:07:01;;;;;;;;;;;;;;;;;;4995833;28;5028;-67
2023/11/03 12:09:27;;;;;;;;;;;;;;;;;;5030450;28;5120;-68
2023/11/03 12:15:23;;;;;;;;;;;;;;;;;;5021934;28;5170;-66
2023/11/03 12:17:51;;;;;;;;;;;;;;;;;;4993333;28;1078;-77
2023/11/03 12:20:16;;;;;;;;;;;;;;;;;;4990521;28;5003;-73
2023/11/03 12:22:42;;;;;;;;;;;;;;;;;;5007651;28;4562;-73
2023/11/03 12:28:11;;;;;;;;;;;;;;;;;;4992727;28;4967;-68
2023/11/03 12:30:49;;;;;;;;;;;;;;;;;;4992952;28;4564;-65
2023/11/03 12:33:31;;;;;;;;;;;;;;;;;;4989210;28;4989;-68
2023/11/03 12:36:09;;;;;;;;;;;;;;;;;;4995090;28;5145;-64
2023/11/03 12:38:45;;;;;;;;;;;;;;;;;;4993116;28;1353;-64
2023/11/03 12:41:13;;;;;;;;;;;;;;;;;;5002164;28;4623;-68
2023/11/03 12:43:40;;;;;;;;;;;;;;;;;;4993722;28;5031;-67
2023/11/03 12:46:05;;;;;;;;;;;;;;;;;;4993154;28;4952;-59
2023/11/03 12:48:31;;;;;;;;;;;;;;;;;;4993462;28;4954;-62
2023/11/03 12:50:56;;;;;;;;;;;;;;;;;;4992502;28;5015;-61
2023/11/03 12:53:22;;;;;;;;;;;;;;;;;;4985097;28;3292;-62
2023/11/03 12:55:56;;;;;;;;;;;;;;;;;;4984580;28;4555;-61
2023/11/03 12:58:56;;;;;;;;;;;;;;;;;;4997473;28;5110;-61
2023/11/03 13:01:21;;;;;;;;;;;;;;;;;;4979477;28;4994;-61
2023/11/03 13:03:48;;;;;;;;;;;;;;;;;;4972905;28;5132;-61
2023/11/03 13:12:37;;;;;;;;;;;;;;;;;;4988458;28;5156;-56
2023/11/03 13:15:05;;;;;;;;;;;;;;;;;;4974666;28;5168;-56
2023/11/03 13:17:33;;;;;;;;;;;;;;;;;;4959052;28;1208;-57
2023/11/03 13:19:58;;;;;;;;;;;;;;;;;;4976110;28;5047;-56
2023/11/03 13:25:38;;;;;;;;;;;;;;;;;;4999760;28;5124;-56
2023/11/03 13:28:25;;;;;;;;;;;;;;;;;;4994213;28;4538;-57
2023/11/03 13:30:51;;;;;;;;;;;;;;;;;;4983998;28;4967;-56
2023/11/03 13:33:16;;;;;;;;;;;;;;;;;;4961802;28;4522;-57
2023/11/03 13:35:41;;;;;;;;;;;;;;;;;;4978183;28;1223;-57
2023/11/03 13:38:22;;;;;;;;;;;;;;;;;;4976028;28;5115;-56
2023/11/03 13:40:50;;;;;;;;;;;;;;;;;;4979737;28;5227;-56
2023/11/03 13:43:16;;;;;;;;;;;;;;;;;;5012639;28;4418;-56
2023/11/03 13:45:42;;;;;;;;;;;;;;;;;;4953082;28;4518;-57
2023/11/03 13:48:24;;;;;;;;;;;;;;;;;;4997103;28;5155;-56
2023/11/03 13:50:50;;;;;;;;;;;;;;;;;;4974503;28;1229;-56
2023/11/03 13:53:16;;;;;;;;;;;;;;;;;;4988477;28;4470;-56
2023/11/03 13:55:41;;;;;;;;;;;;;;;;;;5005156;28;4503;-56
2023/11/03 14:07:39;;;;;;;;;;;;;;;;;;4993421;28;4480;-56
2023/11/03 14:10:08;;;;;;;;;;;;;;;;;;5008576;28;4933;-57
2023/11/03 14:12:33;;;;;;;;;;;;;;;;;;4975657;28;5141;-56
2023/11/03 14:14:59;;;;;;;;;;;;;;;;;;4991092;28;4517;-56
2023/11/03 14:17:24;;;;;;;;;;;;;;;;;;5008335;28;1257;-58
2023/11/03 14:19:50;;;;;;;;;;;;;;;;;;5004171;28;5111;-57
2023/11/03 14:22:16;;;;;;;;;;;;;;;;;;4994558;28;5227;-57
2023/11/03 14:24:42;;;;;;;;;;;;;;;;;;4994294;28;5035;-55
2023/11/03 14:27:07;;;;;;;;;;;;;;;;;;4992968;28;4536;-56
2023/11/03 14:29:34;;;;;;;;;;;;;;;;;;4990112;28;4503;-56
2023/11/03 14:35:10;;;;;;;;;;;;;;;;;;4991722;28;4574;-56
2023/11/03 14:37:58;;;;;;;;;;;;;;;;;;4992870;28;5068;-55
2023/11/03 14:43:53;;;;;;;;;;;;;;;;;;5005765;28;5103;-56
2023/11/03 14:46:20;;;;;;;;;;;;;;;;;;4992856;28;4528;-56
2023/11/03 14:48:47;;;;;;;;;;;;;;;;;;4989958;28;4552;-56
2023/11/03 14:51:14;;;;;;;;;;;;;;;;;;4992700;28;5121;-56
2023/11/03 14:53:39;;;;;;;;;;;;;;;;;;5008274;28;1154;-56
2023/11/03 14:56:05;;;;;;;;;;;;;;;;;;5006696;28;5165;-56
2023/11/03 14:58:30;;;;;;;;;;;;;;;;;;4989773;28;5121;-56
2023/11/03 15:00:56;;;;;;;;;;;;;;;;;;4994821;28;4456;-56
2023/11/03 15:03:22;;;;;;;;;;;;;;;;;;5024097;28;4821;-56
2023/11/03 15:05:48;;;;;;;;;;;;;;;;;;5013542;28;1031;-56
2023/11/03 15:14:21;;;;;;;;;;;;;;;;;;4991529;28;4668;-58
2023/11/03 15:16:52;;;;;;;;;;;;;;;;;;4993007;28;5072;-57
2023/11/03 15:19:18;;;;;;;;;;;;;;;;;;5007061;28;4594;-57
2023/11/03 15:21:43;;;;;;;;;;;;;;;;;;5004204;28;4940;-57
2023/11/03 15:24:09;;;;;;;;;;;;;;;;;;4998945;28;5167;-57
2023/11/03 15:26:34;;;;;;;;;;;;;;;;;;4990995;28;1902;-57
2023/11/03 15:28:59;;;;;;;;;;;;;;;;;;5006880;28;4516;-58
2023/11/03 15:32:02;;;;;;;;;;;;;;;;;;5002952;28;4652;-57
2023/11/03 15:34:27;;;;;;;;;;;;;;;;;;5001660;28;4517;-56
2023/11/03 15:36:55;;;;;;;;;;;;;;;;;;5002547;28;4839;-56
2023/11/03 15:39:31;;;;;;;;;;;;;;;;;;5016707;28;4894;-56
2023/11/03 15:42:00;;;;;;;;;;;;;;;;;;5000237;28;5068;-54
2023/11/03 15:44:25;;;;;;;;;;;;;;;;;;5002072;28;2208;-55
2023/11/03 15:46:52;;;;;;;;;;;;;;;;;;5028975;28;5049;-54
2023/11/03 15:55:54;;;;;;;;;;;;;;;;;;5007794;28;4667;-55
2023/11/03 15:58:19;;;;;;;;;;;;;;;;;;4978055;28;4468;-53
2023/11/03 16:03:47;;;;;;;;;;;;;;;;;;4977943;28;4511;-62
2023/11/03 16:06:13;;;;;;;;;;;;;;;;;;4995129;28;5197;-61
2023/11/03 16:08:38;;;;;;;;;;;;;;;;;;4997503;28;1914;-61
2023/11/03 16:11:04;;;;;;;;;;;;;;;;;;4996008;28;4953;-60
2023/11/03 16:17:03;;;;;;;;;;;;;;;;;;4976029;28;4537;-62
2023/11/03 16:19:29;;;;;;;;;;;;;;;;;;4982072;28;4642;-61
2023/11/03 16:21:54;;;;;;;;;;;;;;;;;;4975020;28;4459;-62
2023/11/03 16:24:19;;;;;;;;;;;;;;;;;;4975092;28;5060;-62
2023/11/03 16:26:47;;;;;;;;;;;;;;;;;;4973116;28;1971;-61
2023/11/03 16:29:14;;;;;;;;;;;;;;;;;;4955807;28;4654;-62
2023/11/03 16:31:40;;;;;;;;;;;;;;;;;;4973337;28;5011;-62
2023/11/03 16:34:06;;;;;;;;;;;;;;;;;;4973747;28;4514;-62
2023/11/03 16:36:43;;;;;;;;;;;;;;;;;;4999524;28;5207;-62
2023/11/03 16:39:09;;;;;;;;;;;;;;;;;;4978327;28;5150;-62
2023/11/03 16:41:35;;;;;;;;;;;;;;;;;;4971435;28;1137;-62
2023/11/03 16:44:17;;;;;;;;;;;;;;;;;;4980735;28;5091;-62
2023/11/03 16:46:42;;;;;;;;;;;;;;;;;;4983768;28;5234;-62
2023/11/03 16:49:08;;;;;;;;;;;;;;;;;;5000610;28;4655;-62
2023/11/03 16:51:33;;;;;;;;;;;;;;;;;;4995954;28;4496;-62
2023/11/03 16:53:59;;;;;;;;;;;;;;;;;;5002132;28;4485;-62
2023/11/03 16:56:24;;;;;;;;;;;;;;;;;;4985670;28;1164;-63
2023/11/03 16:58:49;;;;;;;;;;;;;;;;;;4995968;28;4892;-62
2023/11/03 17:01:16;;;;;;;;;;;;;;;;;;4990682;28;4868;-62
2023/11/03 17:03:42;;;;;;;;;;;;;;;;;;4992416;28;4710;-61
2023/11/03 17:06:08;;;;;;;;;;;;;;;;;;5022107;28;5044;-62
2023/11/03 17:08:38;;;;;;;;;;;;;;;;;;5014745;28;1910;-62
2023/11/03 17:11:03;;;;;;;;;;;;;;;;;;5017644;28;5191;-62
2023/11/03 17:13:29;;;;;;;;;;;;;;;;;;5031551;28;4619;-63
2023/11/03 17:15:58;;;;;;;;;;;;;;;;;;5013131;28;5110;-61
2023/11/03 17:18:30;;;;;;;;;;;;;;;;;;4979931;28;4844;-62
2023/11/03 17:20:55;;;;;;;;;;;;;;;;;;4994432;28;5108;-61
2023/11/03 17:32:51;;;;;;;;;;;;;;;;;;4977534;28;4585;-62
2023/11/03 17:35:20;;;;;;;;;;;;;;;;;;5022980;28;4491;-62
2023/11/03 17:37:45;;;;;;;;;;;;;;;;;;5005801;28;5330;-63
2023/11/03 17:40:11;;;;;;;;;;;;;;;;;;4986084;28;4505;-63
2023/11/03 17:42:37;;;;;;;;;;;;;;;;;;4979596;28;4454;-62
2023/11/03 17:45:04;;;;;;;;;;;;;;;;;;4972211;28;5069;-61
2023/11/03 17:47:32;;;;;;;;;;;;;;;;;;4973611;28;2638;-61
2023/11/03 17:49:57;;;;;;;;;;;;;;;;;;4985016;28;4499;-54
2023/11/03 17:52:22;;;;;;;;;;;;;;;;;;4972322;28;5077;-50
2023/11/03 17:54:48;;;;;;;;;;;;;;;;;;4983949;28;5066;-53
2023/11/03 17:57:14;;;;;;;;;;;;;;;;;;4968095;28;4684;-52
2023/11/03 17:59:39;;;;;;;;;;;;;;;;;;4985920;28;2095;-53
2023/11/03 18:02:06;;;;;;;;;;;;;;;;;;4991312;28;4501;-52
2023/11/03 18:04:40;;;;;;;;;;;;;;;;;;4979570;28;5224;-51
2023/11/03 18:10:03;;;;;;;;;;;;;;;;;;4974366;28;4542;-52
2023/11/03 18:12:29;;;;;;;;;;;;;;;;;;4981297;28;4719;-51
2023/11/03 18:14:56;;;;;;;;;;;;;;;;;;4971924;28;5024;-52
2023/11/03 18:17:21;;;;;;;;;;;;;;;;;;4960471;28;1250;-52
2023/11/03 18:19:47;;;;;;;;;;;;;;;;;;4969144;28;4462;-52
2023/11/03 18:22:15;;;;;;;;;;;;;;;;;;4964223;28;5023;-53
2023/11/03 18:24:54;;;;;;;;;;;;;;;;;;4967129;28;4479;-53
2023/11/03 18:27:19;;;;;;;;;;;;;;;;;;4975414;28;5155;-53
2023/11/03 18:29:45;;;;;;;;;;;;;;;;;;4976605;28;1130;-55
2023/11/03 18:32:10;;;;;;;;;;;;;;;;;;4981835;28;4943;-54
2023/11/03 18:34:36;;;;;;;;;;;;;;;;;;4967808;28;5301;-56
2023/11/03 18:37:04;;;;;;;;;;;;;;;;;;4972641;28;5111;-53
2023/11/03 18:39:35;;;;;;;;;;;;;;;;;;4966504;28;5083;-54
2023/11/03 18:42:01;;;;;;;;;;;;;;;;;;4972021;28;5020;-53
2023/11/03 18:44:27;;;;;;;;;;;;;;;;;;4967226;28;1115;-54
2023/11/03 18:46:56;;;;;;;;;;;;;;;;;;4968173;28;5044;-54
2023/11/03 18:49:22;;;;;;;;;;;;;;;;;;4992378;28;4584;-53
2023/11/03 18:51:47;;;;;;;;;;;;;;;;;;4990605;28;5058;-52
2023/11/03 18:54:13;;;;;;;;;;;;;;;;;;4975451;28;5022;-53
2023/11/03 18:56:55;;;;;;;;;;;;;;;;;;4988871;28;1232;-53
2023/11/03 18:59:20;;;;;;;;;;;;;;;;;;4992326;28;5063;-55
2023/11/03 19:01:49;;;;;;;;;;;;;;;;;;5021931;28;4894;-53
2023/11/03 19:04:19;;;;;;;;;;;;;;;;;;4999548;28;4655;-53
2023/11/03 19:06:45;;;;;;;;;;;;;;;;;;4968832;28;5099;-55
2023/11/03 19:09:25;;;;;;;;;;;;;;;;;;4994863;28;4982;-53
2023/11/03 19:11:53;;;;;;;;;;;;;;;;;;4999792;28;972;-56
2023/11/03 19:14:25;;;;;;;;;;;;;;;;;;5009882;28;4902;-54
2023/11/03 19:16:53;;;;;;;;;;;;;;;;;;4994383;28;5065;-52
2023/11/03 19:19:18;;;;;;;;;;;;;;;;;;4994988;28;5235;-55
2023/11/03 19:21:46;;;;;;;;;;;;;;;;;;4994069;28;4947;-55
2023/11/03 19:24:12;;;;;;;;;;;;;;;;;;4992102;28;4786;-55
2023/11/03 19:26:37;;;;;;;;;;;;;;;;;;5005599;28;2982;-53
2023/11/03 19:29:03;;;;;;;;;;;;;;;;;;5009581;28;5146;-52
2023/11/03 19:31:29;;;;;;;;;;;;;;;;;;4993101;28;4560;-54
2023/11/03 19:33:57;;;;;;;;;;;;;;;;;;4981239;28;5280;-54
2023/11/03 19:36:23;;;;;;;;;;;;;;;;;;4979305;28;5145;-55
2023/11/03 19:42:13;;;;;;;;;;;;;;;;;;4988678;28;4965;-54
2023/11/03 19:44:44;;;;;;;;;;;;;;;;;;5007401;28;3128;-53
2023/11/03 19:47:10;;;;;;;;;;;;;;;;;;5005119;28;4845;-54
2023/11/03 19:49:46;;;;;;;;;;;;;;;;;;4990331;28;5122;-53
2023/11/03 19:52:19;;;;;;;;;;;;;;;;;;4990376;28;5033;-55
2023/11/03 19:54:47;;;;;;;;;;;;;;;;;;4995182;28;4542;-55
2023/11/03 19:57:18;;;;;;;;;;;;;;;;;;4982530;28;5219;-55
2023/11/03 19:59:44;;;;;;;;;;;;;;;;;;5007744;28;1540;-54
2023/11/03 20:02:09;;;;;;;;;;;;;;;;;;4999632;28;5046;-54
2023/11/03 20:04:52;;;;;;;;;;;;;;;;;;4973761;28;5684;-54
2023/11/03 20:07:17;;;;;;;;;;;;;;;;;;4984614;28;5079;-54
2023/11/03 20:09:42;;;;;;;;;;;;;;;;;;4998541;28;5097;-54
2023/11/03 20:12:07;;;;;;;;;;;;;;;;;;4992961;28;4664;-55
2023/11/03 20:14:33;;;;;;;;;;;;;;;;;;4977390;28;3111;-54
2023/11/03 20:16:58;;;;;;;;;;;;;;;;;;4974835;28;5022;-54
2023/11/03 20:19:24;;;;;;;;;;;;;;;;;;4972698;28;4821;-55
2023/11/03 20:21:49;;;;;;;;;;;;;;;;;;4973529;28;5095;-54
2023/11/03 20:24:14;;;;;;;;;;;;;;;;;;4978618;28;4536;-54
2023/11/03 20:26:41;;;;;;;;;;;;;;;;;;4974055;28;1107;-57
2023/11/03 20:29:08;;;;;;;;;;;;;;;;;;4976126;28;4691;-55
2023/11/03 20:32:08;;;;;;;;;;;;;;;;;;4983001;28;5273;-55
2023/11/03 20:34:33;;;;;;;;;;;;;;;;;;5006046;28;4665;-54
2023/11/03 20:36:59;;;;;;;;;;;;;;;;;;5017993;28;5163;-54